createdAt,value
2019-04-14T00:01:36.961Z,115.23
2019-04-14T00:04:22.668Z,108.73
2019-04-14T00:06:52.515Z,109.77
2019-04-14T00:09:20.659Z,112.70
2019-04-14T00:11:48.577Z,110.20
2019-04-14T00:14:16.571Z,109.97
2019-04-14T00:16:44.652Z,115.63
2019-04-14T00:19:13.035Z,111.30
2019-04-14T00:21:41.141Z,113.53
2019-04-14T00:24:09.485Z,110.00
2019-04-14T00:26:37.954Z,110.03
2019-04-14T00:29:06.782Z,109.80
2019-04-14T00:31:34.993Z,113.33
2019-04-14T00:34:07.260Z,110.63
2019-04-14T00:37:01.277Z,113.40
2019-04-14T00:39:35.718Z,112.33
2019-04-14T00:42:23.415Z,110.07
2019-04-14T00:44:55.931Z,113.70
2019-04-14T00:47:31.172Z,108.33
2019-04-14T00:49:59.443Z,119.07
2019-04-14T00:52:27.721Z,112.67
2019-04-14T00:54:56.479Z,113.13
2019-04-14T00:57:24.720Z,111.00
2019-04-14T00:59:53.100Z,110.10
2019-04-14T01:02:21.178Z,112.63
2019-04-14T01:04:49.194Z,105.53
2019-04-14T01:07:17.354Z,109.53
2019-04-14T01:09:46.354Z,113.27
2019-04-14T01:12:14.898Z,117.03
2019-04-14T01:14:43.131Z,111.67
2019-04-14T01:17:11.354Z,111.60
2019-04-14T01:19:39.470Z,110.70
2019-04-14T01:22:07.482Z,111.90
2019-04-14T01:24:35.996Z,110.90
2019-04-14T01:27:04.130Z,111.07
2019-04-14T01:29:32.111Z,107.90
2019-04-14T01:32:00.622Z,111.13
2019-04-14T01:34:28.669Z,110.97
2019-04-14T01:36:56.718Z,112.83
2019-04-14T01:39:24.739Z,109.33
2019-04-14T01:41:52.799Z,109.13
2019-04-14T01:44:21.998Z,112.17
2019-04-14T01:46:50.057Z,105.97
2019-04-14T01:49:18.141Z,112.30
2019-04-14T01:52:08.215Z,110.37
2019-04-14T01:54:45.432Z,112.27
2019-04-14T01:57:30.638Z,109.37
2019-04-14T02:00:18.445Z,113.87
2019-04-14T02:02:46.569Z,107.80
2019-04-14T02:05:14.646Z,112.27
2019-04-14T02:07:42.887Z,112.23
2019-04-14T02:10:11.098Z,106.73
2019-04-14T02:12:39.086Z,108.20
2019-04-14T02:15:07.251Z,109.30
2019-04-14T02:17:35.311Z,108.23
2019-04-14T02:20:03.435Z,107.30
2019-04-14T02:22:31.487Z,106.63
2019-04-14T02:24:59.546Z,108.40
2019-04-14T02:27:27.551Z,108.17
2019-04-14T02:29:55.948Z,111.40
2019-04-14T02:32:49.516Z,111.30
2019-04-14T02:35:20.965Z,114.20
2019-04-14T02:37:59.385Z,108.17
2019-04-14T02:42:52.398Z,101.57
2019-04-14T02:45:29.943Z,109.03
2019-04-14T02:50:18.035Z,105.07
2019-04-14T02:55:32.434Z,105.50
2019-04-14T02:57:49.367Z,109.67
2019-04-14T03:00:24.179Z,111.17
2019-04-14T03:02:44.337Z,106.27
2019-04-14T03:05:17.622Z,105.57
2019-04-14T03:07:45.766Z,109.80
2019-04-14T03:15:19.474Z,108.90
2019-04-14T03:18:18.175Z,111.83
2019-04-14T03:20:32.205Z,109.23
2019-04-14T03:23:17.317Z,110.60
2019-04-14T03:25:49.186Z,110.70
2019-04-14T03:28:36.467Z,108.73
2019-04-14T03:31:25.984Z,108.37
2019-04-14T03:41:13.708Z,105.87
2019-04-14T03:43:33.877Z,106.33
2019-04-14T03:51:05.504Z,103.90
2019-04-14T03:53:28.943Z,109.60
2019-04-14T03:55:59.760Z,112.30
2019-04-14T03:58:22.599Z,108.70
2019-04-14T04:00:51.504Z,107.37
2019-04-14T04:03:19.665Z,103.23
2019-04-14T04:05:47.892Z,103.67
2019-04-14T04:08:15.899Z,108.03
2019-04-14T04:10:44.306Z,105.53
2019-04-14T04:13:12.627Z,106.47
2019-04-14T04:15:41.192Z,110.17
2019-04-14T04:18:17.823Z,107.27
2019-04-14T04:21:20.641Z,107.13
2019-04-14T04:23:53.391Z,107.13
2019-04-14T04:26:47.243Z,105.37
2019-04-14T04:29:20.127Z,102.90
2019-04-14T04:32:19.179Z,101.80
2019-04-14T04:35:09.299Z,102.57
2019-04-14T04:37:47.719Z,105.83
2019-04-14T04:40:20.142Z,105.17
2019-04-14T04:42:48.432Z,104.57
2019-04-14T04:45:17.084Z,103.27
2019-04-14T04:47:45.172Z,102.07
2019-04-14T04:50:13.245Z,102.03
2019-04-14T04:52:41.279Z,104.10
2019-04-14T04:55:09.261Z,104.47
2019-04-14T04:57:37.318Z,106.00
2019-04-14T05:00:07.018Z,105.37
2019-04-14T05:02:35.313Z,104.90
2019-04-14T05:05:03.545Z,101.60
2019-04-14T05:07:31.722Z,103.77
2019-04-14T05:10:28.545Z,102.07
2019-04-14T05:13:09.984Z,101.97
2019-04-14T05:15:53.246Z,109.00
2019-04-14T05:18:22.869Z,105.77
2019-04-14T05:20:51.060Z,106.27
2019-04-14T05:23:19.192Z,105.97
2019-04-14T05:25:47.468Z,103.30
2019-04-14T05:28:15.626Z,103.53
2019-04-14T05:30:43.673Z,103.53
2019-04-14T05:33:12.108Z,106.23
2019-04-14T05:35:40.354Z,106.00
2019-04-14T05:38:08.544Z,107.73
2019-04-14T05:40:36.591Z,105.40
2019-04-14T05:43:04.600Z,109.57
2019-04-14T05:45:32.801Z,106.93
2019-04-14T05:48:01.113Z,102.40
2019-04-14T05:50:29.273Z,103.13
2019-04-14T05:52:57.934Z,102.43
2019-04-14T05:55:26.300Z,99.90
2019-04-14T05:57:54.565Z,102.70
2019-04-14T06:00:23.531Z,103.53
2019-04-14T06:02:52.648Z,108.17
2019-04-14T06:05:21.137Z,110.33
2019-04-14T06:07:49.381Z,103.47
2019-04-14T06:10:17.462Z,105.70
2019-04-14T06:12:45.411Z,101.57
2019-04-14T06:15:13.503Z,106.77
2019-04-14T06:17:41.575Z,106.47
2019-04-14T06:20:09.638Z,102.07
2019-04-14T06:22:37.613Z,98.67
2019-04-14T06:25:06.702Z,101.13
2019-04-14T06:27:35.404Z,98.20
2019-04-14T06:30:14.937Z,101.90
2019-04-14T06:32:44.102Z,98.70
2019-04-14T06:35:37.149Z,98.47
2019-04-14T06:38:11.602Z,102.23
2019-04-14T06:40:49.907Z,99.60
2019-04-14T06:43:17.991Z,95.10
2019-04-14T06:45:45.952Z,97.83
2019-04-14T06:48:14.305Z,100.13
2019-04-14T06:50:42.296Z,100.90
2019-04-14T06:53:10.267Z,100.60
2019-04-14T06:55:38.252Z,97.07
2019-04-14T06:58:06.218Z,111.37
2019-04-14T07:00:34.318Z,112.60
2019-04-14T07:03:02.350Z,106.17
2019-04-14T07:05:30.416Z,105.53
2019-04-14T07:07:58.522Z,105.63
2019-04-14T07:10:26.558Z,104.93
2019-04-14T07:12:54.551Z,104.10
2019-04-14T07:15:22.625Z,105.03
2019-04-14T07:17:50.667Z,105.60
2019-04-14T07:20:18.658Z,106.27
2019-04-14T07:22:46.605Z,106.27
2019-04-14T07:25:14.592Z,106.27
2019-04-14T07:27:42.649Z,104.30
2019-04-14T07:30:29.697Z,100.77
2019-04-14T07:33:15.444Z,98.83
2019-04-14T07:35:53.568Z,101.17
2019-04-14T07:38:26.266Z,95.97
2019-04-14T07:41:25.587Z,101.00
2019-04-14T07:44:18.626Z,99.77
2019-04-14T07:46:59.363Z,97.70
2019-04-14T07:49:58.729Z,97.27
2019-04-14T07:52:37.287Z,95.47
2019-04-14T07:55:24.210Z,91.50
2019-04-14T07:58:09.802Z,90.90
2019-04-14T08:00:52.033Z,91.37
2019-04-14T08:03:44.876Z,96.63
2019-04-14T08:06:12.954Z,93.27
2019-04-14T08:08:40.972Z,94.80
2019-04-14T08:11:08.952Z,116.77
2019-04-14T08:13:36.940Z,102.90
2019-04-14T08:16:05.117Z,102.47
2019-04-14T08:18:33.337Z,92.17
2019-04-14T08:21:01.357Z,93.27
2019-04-14T08:23:29.569Z,104.17
2019-04-14T08:25:57.594Z,98.90
2019-04-14T08:28:25.678Z,96.70
2019-04-14T08:30:53.758Z,106.20
2019-04-14T08:33:21.686Z,98.40
2019-04-14T08:35:49.703Z,110.87
2019-04-14T08:38:17.728Z,110.93
2019-04-14T08:40:45.930Z,96.67
2019-04-14T08:43:33.048Z,97.47
2019-04-14T08:46:25.595Z,98.80
2019-04-14T08:49:08.926Z,93.70
2019-04-14T08:51:54.597Z,94.63
2019-04-14T08:54:27.043Z,94.10
2019-04-14T08:57:14.086Z,91.87
2019-04-14T08:59:53.598Z,91.57
2019-04-14T09:02:43.573Z,93.60
2019-04-14T09:05:42.972Z,91.00
2019-04-14T09:08:20.922Z,94.07
2019-04-14T09:10:52.053Z,92.40
2019-04-14T09:13:20.037Z,90.97
2019-04-14T09:15:48.016Z,93.17
2019-04-14T09:18:15.973Z,91.83
2019-04-14T09:20:52.167Z,91.67
2019-04-14T09:23:13.826Z,88.30
2019-04-14T09:25:41.804Z,91.27
2019-04-14T09:28:09.794Z,90.27
2019-04-14T09:30:37.798Z,89.23
2019-04-14T09:33:05.806Z,95.23
2019-04-14T09:35:33.881Z,95.43
2019-04-14T09:38:01.876Z,94.50
2019-04-14T09:40:29.940Z,88.17
2019-04-14T09:42:57.924Z,92.63
2019-04-14T09:45:25.980Z,92.10
2019-04-14T09:47:53.953Z,94.77
2019-04-14T09:50:21.927Z,92.13
2019-04-14T09:52:49.882Z,93.93
2019-04-14T09:55:17.864Z,94.80
2019-04-14T09:57:45.954Z,92.40
2019-04-14T10:00:14.708Z,93.50
2019-04-14T10:02:42.712Z,103.20
2019-04-14T10:05:10.779Z,93.13
2019-04-14T10:07:38.843Z,90.40
2019-04-14T10:10:06.919Z,92.97
2019-04-14T10:12:34.951Z,93.80
2019-04-14T10:15:03.076Z,93.03
2019-04-14T10:17:31.102Z,92.07
2019-04-14T10:19:59.089Z,93.07
2019-04-14T10:22:33.817Z,90.87
2019-04-14T10:24:56.855Z,93.40
2019-04-14T10:27:24.853Z,91.93
2019-04-14T10:29:52.796Z,93.03
2019-04-14T10:32:20.960Z,89.40
2019-04-14T10:34:48.958Z,88.60
2019-04-14T10:37:17.012Z,92.07
2019-04-14T10:39:44.986Z,90.90
2019-04-14T10:42:47.467Z,94.37
2019-04-14T10:45:18.348Z,92.43
2019-04-14T10:47:45.881Z,92.97
2019-04-14T10:50:13.845Z,92.87
2019-04-14T10:52:41.913Z,89.10
2019-04-14T10:55:10.140Z,90.70
2019-04-14T10:57:38.129Z,92.50
2019-04-14T11:00:08.106Z,91.27
2019-04-14T11:02:36.143Z,92.30
2019-04-14T11:05:04.305Z,91.70
2019-04-14T11:07:32.413Z,92.53
2019-04-14T11:10:00.393Z,91.17
2019-04-14T11:12:28.318Z,92.07
2019-04-14T11:14:56.309Z,93.50
2019-04-14T11:17:24.568Z,92.47
2019-04-14T11:19:53.614Z,91.60
2019-04-14T11:22:21.644Z,92.67
2019-04-14T11:24:49.732Z,92.07
2019-04-14T11:27:17.671Z,93.87
2019-04-14T11:29:45.723Z,96.87
2019-04-14T11:32:35.791Z,92.07
2019-04-14T11:35:31.675Z,91.40
2019-04-14T11:38:13.630Z,93.70
2019-04-14T11:40:44.488Z,93.67
2019-04-14T11:43:12.449Z,92.77
2019-04-14T11:45:40.753Z,96.93
2019-04-14T11:48:08.783Z,92.20
2019-04-14T11:50:36.744Z,94.37
2019-04-14T11:53:04.783Z,90.53
2019-04-14T11:55:32.955Z,92.07
2019-04-14T11:58:01.002Z,91.70
2019-04-14T12:00:41.693Z,96.57
2019-04-14T12:03:24.662Z,93.67
2019-04-14T12:06:10.673Z,95.77
2019-04-14T12:08:56.302Z,92.50
2019-04-14T12:11:24.315Z,93.07
2019-04-14T12:13:52.292Z,96.17
2019-04-14T12:16:20.245Z,94.07
2019-04-14T12:18:48.267Z,92.13
2019-04-14T12:21:16.204Z,97.50
2019-04-14T12:23:44.172Z,92.70
2019-04-14T12:26:12.138Z,92.77
2019-04-14T12:28:40.488Z,93.97
2019-04-14T12:31:08.766Z,97.10
2019-04-14T12:33:36.744Z,90.20
2019-04-14T12:36:06.634Z,92.10
2019-04-14T12:38:34.649Z,96.67
2019-04-14T12:41:04.442Z,100.87
2019-04-14T12:43:54.317Z,97.20
2019-04-14T12:46:38.994Z,96.60
2019-04-14T12:49:11.787Z,92.87
2019-04-14T12:52:01.879Z,92.07
2019-04-14T12:54:29.930Z,92.93
2019-04-14T12:56:58.046Z,93.97
2019-04-14T12:59:26.400Z,177.63
2019-04-14T13:02:07.377Z,107.00
2019-04-14T13:04:35.431Z,92.80
2019-04-14T13:07:03.322Z,92.00
2019-04-14T13:09:31.335Z,93.80
2019-04-14T13:11:59.241Z,92.03
2019-04-14T13:14:27.308Z,93.77
2019-04-14T13:16:55.391Z,98.63
2019-04-14T13:19:23.497Z,98.37
2019-04-14T13:21:51.393Z,97.70
2019-04-14T13:24:20.003Z,94.03
2019-04-14T13:26:48.086Z,94.67
2019-04-14T13:29:16.124Z,99.00
2019-04-14T13:31:44.161Z,96.83
2019-04-14T13:34:13.225Z,94.03
2019-04-14T13:36:41.305Z,94.63
2019-04-14T13:39:09.240Z,95.17
2019-04-14T13:41:37.224Z,97.30
2019-04-14T13:44:05.225Z,93.07
2019-04-14T13:46:33.270Z,94.57
2019-04-14T13:49:01.366Z,94.87
2019-04-14T13:51:29.390Z,97.17
2019-04-14T13:53:57.421Z,95.70
2019-04-14T13:56:25.320Z,95.93
2019-04-14T13:58:53.298Z,99.60
2019-04-14T14:01:21.284Z,98.60
2019-04-14T14:03:49.371Z,96.23
2019-04-14T14:06:17.389Z,99.10
2019-04-14T14:08:45.397Z,96.07
2019-04-14T14:11:22.395Z,98.40
2019-04-14T14:13:56.074Z,97.30
2019-04-14T14:16:41.883Z,93.80
2019-04-14T14:19:23.561Z,97.70
2019-04-14T14:22:10.543Z,95.43
2019-04-14T14:24:57.588Z,90.83
2019-04-14T14:27:25.640Z,96.00
2019-04-14T14:29:53.682Z,95.77
2019-04-14T14:32:40.742Z,98.07
2019-04-14T14:35:08.971Z,95.33
2019-04-14T14:37:36.967Z,96.23
2019-04-14T14:40:06.690Z,96.17
2019-04-14T14:42:34.657Z,101.87
2019-04-14T14:45:17.779Z,101.80
2019-04-14T14:47:52.110Z,101.00
2019-04-14T14:50:29.498Z,101.50
2019-04-14T14:52:57.575Z,102.30
2019-04-14T14:55:25.538Z,100.37
2019-04-14T14:57:53.619Z,100.80
2019-04-14T15:00:30.062Z,98.93
2019-04-14T15:02:58.112Z,96.53
2019-04-14T15:05:26.007Z,99.17
2019-04-14T15:07:53.953Z,97.07
2019-04-14T15:10:22.116Z,96.40
2019-04-14T15:12:50.169Z,100.80
2019-04-14T15:15:18.185Z,101.00
2019-04-14T15:17:46.282Z,101.10
2019-04-14T15:20:14.346Z,97.77
2019-04-14T15:22:42.861Z,99.07
2019-04-14T15:25:10.909Z,96.77
2019-04-14T15:27:38.993Z,100.83
2019-04-14T15:30:12.192Z,105.03
2019-04-14T15:32:40.453Z,98.30
2019-04-14T15:35:08.545Z,105.17
2019-04-14T15:37:36.726Z,100.97
2019-04-14T15:40:05.292Z,97.87
2019-04-14T15:42:33.344Z,100.93
2019-04-14T15:45:01.362Z,98.27
2019-04-14T15:47:29.357Z,99.97
2019-04-14T15:49:57.430Z,101.93
2019-04-14T15:52:25.490Z,96.90
2019-04-14T15:54:53.482Z,95.87
2019-04-14T15:57:38.557Z,97.47
2019-04-14T16:00:24.865Z,101.50
2019-04-14T16:03:12.015Z,99.97
2019-04-14T16:06:01.819Z,96.60
2019-04-14T16:08:43.641Z,92.27
2019-04-14T16:11:30.641Z,90.93
2019-04-14T16:14:33.086Z,91.70
2019-04-14T16:17:29.218Z,93.00
2019-04-14T16:20:22.317Z,90.10
2019-04-14T16:22:50.390Z,90.07
2019-04-14T16:25:18.802Z,89.10
2019-04-14T16:28:14.796Z,92.13
2019-04-14T16:31:14.110Z,88.57
2019-04-14T16:34:01.976Z,96.00
2019-04-14T16:36:30.060Z,94.60
2019-04-14T16:38:58.164Z,90.80
2019-04-14T16:41:26.152Z,91.27
2019-04-14T16:43:54.161Z,95.40
2019-04-14T16:46:22.124Z,93.10
2019-04-14T16:48:50.238Z,98.03
2019-04-14T16:51:23.901Z,92.90
2019-04-14T16:54:02.626Z,93.53
2019-04-14T16:56:46.423Z,94.10
2019-04-14T16:59:16.355Z,93.60
2019-04-14T17:01:46.767Z,94.83
2019-04-14T17:04:14.758Z,91.17
2019-04-14T17:06:42.840Z,93.87
2019-04-14T17:09:10.787Z,89.20
2019-04-14T17:11:38.809Z,94.50
2019-04-14T17:14:10.499Z,94.93
2019-04-14T17:17:03.442Z,92.90
2019-04-14T17:19:53.601Z,97.13
2019-04-14T17:22:43.640Z,98.30
2019-04-14T17:25:28.501Z,89.80
2019-04-14T17:28:24.581Z,88.90
2019-04-14T17:31:17.389Z,89.70
2019-04-14T17:34:07.214Z,93.60
2019-04-14T17:36:46.773Z,98.10
2019-04-14T17:39:35.449Z,92.67
2019-04-14T17:42:13.767Z,91.13
2019-04-14T17:45:00.787Z,109.07
2019-04-14T17:47:47.866Z,92.60
2019-04-14T17:50:40.543Z,92.73
2019-04-14T17:53:15.025Z,94.90
2019-04-14T17:55:51.747Z,91.00
2019-04-14T17:58:24.321Z,91.30
2019-04-14T18:01:11.397Z,91.97
2019-04-14T18:03:50.881Z,96.67
2019-04-14T18:06:25.143Z,96.60
2019-04-14T18:09:10.758Z,105.97
2019-04-14T18:11:57.781Z,117.07
2019-04-14T18:14:32.116Z,117.87
2019-04-14T18:17:25.472Z,139.87
2019-04-14T18:20:15.476Z,192.57
2019-04-14T18:22:43.420Z,135.23
2019-04-14T18:25:11.444Z,110.73
2019-04-14T18:27:58.499Z,118.40
2019-04-14T18:30:29.957Z,102.80
2019-04-14T18:33:21.287Z,98.73
2019-04-14T18:35:59.398Z,93.83
2019-04-14T18:38:59.010Z,103.90
2019-04-14T18:41:55.063Z,100.10
2019-04-14T18:44:42.130Z,99.57
2019-04-14T18:47:30.801Z,99.97
2019-04-14T18:50:18.555Z,100.37
2019-04-14T18:53:04.512Z,98.57
2019-04-14T18:55:50.224Z,95.27
2019-04-14T18:58:37.304Z,96.23
2019-04-14T19:01:12.371Z,97.73
2019-04-14T19:03:41.473Z,98.50
2019-04-14T19:06:09.444Z,97.27
2019-04-14T19:08:37.500Z,99.00
2019-04-14T19:11:14.080Z,100.80
2019-04-14T19:13:42.236Z,97.07
2019-04-14T19:16:16.374Z,100.27
2019-04-14T19:18:49.757Z,98.30
2019-04-14T19:21:20.240Z,95.97
2019-04-14T19:23:54.296Z,95.30
2019-04-14T19:26:22.327Z,94.30
2019-04-14T19:28:50.212Z,98.23
2019-04-14T19:31:18.188Z,96.97
2019-04-14T19:33:46.250Z,100.33
2019-04-14T19:36:14.225Z,97.60
2019-04-14T19:38:42.392Z,94.23
2019-04-14T19:41:10.368Z,99.70
2019-04-14T19:43:38.360Z,98.00
2019-04-14T19:46:06.302Z,95.80
2019-04-14T19:48:34.285Z,96.23
2019-04-14T19:51:02.268Z,95.57
2019-04-14T19:53:30.320Z,97.80
2019-04-14T19:55:58.315Z,102.20
2019-04-14T19:58:26.360Z,91.37
2019-04-14T20:00:54.747Z,93.83
2019-04-14T20:03:22.837Z,101.83
2019-04-14T20:05:50.880Z,96.23
2019-04-14T20:08:18.866Z,98.57
2019-04-14T20:10:46.848Z,91.87
2019-04-14T20:13:14.841Z,95.10
2019-04-14T20:16:20.257Z,92.10
2019-04-14T20:19:10.632Z,90.83
2019-04-14T20:21:59.081Z,88.70
2019-04-14T20:24:44.575Z,91.97
2019-04-14T20:27:34.839Z,86.63
2019-04-14T20:30:07.346Z,85.80
2019-04-14T20:32:37.041Z,83.60
2019-04-14T20:35:05.647Z,81.17
2019-04-14T20:37:33.830Z,81.00
2019-04-14T20:40:01.882Z,80.30
2019-04-14T20:42:29.953Z,79.50
2019-04-14T20:44:58.017Z,81.40
2019-04-14T20:47:26.019Z,80.57
2019-04-14T20:49:54.075Z,79.40
2019-04-14T20:52:22.178Z,79.17
2019-04-14T20:54:50.181Z,81.27
2019-04-14T20:57:18.192Z,77.70
2019-04-14T20:59:46.140Z,75.27
2019-04-14T21:02:42.506Z,76.40
2019-04-14T21:05:28.632Z,77.00
2019-04-14T21:08:34.154Z,76.80
2019-04-14T21:11:23.949Z,76.20
2019-04-14T21:14:08.204Z,77.50
2019-04-14T21:16:50.682Z,87.20
2019-04-14T21:19:38.034Z,78.97
2019-04-14T21:22:14.122Z,80.57
2019-04-14T21:25:19.807Z,78.30
2019-04-14T21:27:56.748Z,77.40
2019-04-14T21:30:34.021Z,77.00
2019-04-14T21:33:07.737Z,77.97
2019-04-14T21:35:55.312Z,83.00
2019-04-14T21:38:41.210Z,78.90
2019-04-14T21:41:13.438Z,77.20
2019-04-14T21:43:41.915Z,75.07
2019-04-14T21:46:10.201Z,77.50
2019-04-14T21:48:38.168Z,75.40
2019-04-14T21:51:06.133Z,72.27
2019-04-14T21:53:34.117Z,73.27
2019-04-14T21:56:12.837Z,74.50
2019-04-14T21:58:39.862Z,74.27
2019-04-14T22:01:44.692Z,75.00
2019-04-14T22:04:34.496Z,77.57
2019-04-14T22:07:19.735Z,75.13
2019-04-14T22:09:47.837Z,77.27
2019-04-14T22:12:15.812Z,79.00
2019-04-14T22:14:43.833Z,77.47
2019-04-14T22:17:11.866Z,76.63
2019-04-14T22:19:39.938Z,76.80
2019-04-14T22:22:08.150Z,78.20
2019-04-14T22:24:36.162Z,75.20
2019-04-14T22:27:04.136Z,77.10
2019-04-14T22:29:32.129Z,75.57
2019-04-14T22:32:00.089Z,77.80
2019-04-14T22:34:28.033Z,76.07
2019-04-14T22:36:56.422Z,74.83
2019-04-14T22:39:24.397Z,76.63
2019-04-14T22:41:52.458Z,78.40
2019-04-14T22:44:20.453Z,77.20
2019-04-14T22:46:48.504Z,76.80
2019-04-14T22:49:16.590Z,76.50
2019-04-14T22:51:44.631Z,81.50
2019-04-14T22:54:12.632Z,74.60
2019-04-14T22:56:40.584Z,76.13
2019-04-14T22:59:08.874Z,75.47
2019-04-14T23:01:38.998Z,74.70
2019-04-14T23:04:31.680Z,73.80
2019-04-14T23:07:21.765Z,73.87
2019-04-14T23:10:21.176Z,76.13
2019-04-14T23:13:02.732Z,76.33
2019-04-14T23:15:43.786Z,74.23
2019-04-14T23:18:29.488Z,74.03
2019-04-14T23:21:34.762Z,73.67
2019-04-14T23:24:30.501Z,73.60
2019-04-14T23:26:58.572Z,74.80
2019-04-14T23:29:26.570Z,75.30
2019-04-14T23:31:54.539Z,75.13
2019-04-14T23:34:22.537Z,75.17
2019-04-14T23:36:50.633Z,78.57
2019-04-14T23:39:18.666Z,76.17
2019-04-14T23:41:46.711Z,76.60
2019-04-14T23:44:14.722Z,76.83
2019-04-14T23:46:42.757Z,77.30
2019-04-14T23:49:10.729Z,74.60
2019-04-14T23:51:38.717Z,74.17
2019-04-14T23:54:06.787Z,75.37
2019-04-14T23:56:34.866Z,72.80
2019-04-14T23:59:03.030Z,74.97
